sensor_id;sensor_type;location;lat;lon;timestamp;pressure;altitude;pressure_sealevel;temperature;humidity
68889;BME280;55930;47.412;8.790;2023-02-16T00:02:23;95582.28;;;0.98;100.00
68889;BME280;55930;47.412;8.790;2023-02-16T00:05:46;95581.91;;;0.92;100.00
68889;BME280;55930;47.412;8.790;2023-02-16T00:09:06;95581.50;;;0.83;100.00
68889;BME280;55930;47.412;8.790;2023-02-16T00:12:27;95585.28;;;0.93;100.00
68889;BME280;55930;47.412;8.790;2023-02-16T00:16:12;95593.81;;;0.83;100.00
68889;BME280;55930;47.412;8.790;2023-02-16T00:19:35;95586.34;;;0.81;100.00
68889;BME280;55930;47.412;8.790;2023-02-16T00:22:56;95592.72;;;0.87;100.00
68889;BME280;55930;47.412;8.790;2023-02-16T00:26:22;95591.97;;;0.80;100.00
68889;BME280;55930;47.412;8.790;2023-02-16T00:29:45;95590.50;;;0.93;100.00
68889;BME280;55930;47.412;8.790;2023-02-16T00:33:17;95595.38;;;1.01;100.00
68889;BME280;55930;47.412;8.790;2023-02-16T00:36:40;95595.38;;;1.01;100.00
68889;BME280;55930;47.412;8.790;2023-02-16T00:40:00;95590.13;;;0.87;100.00
68889;BME280;55930;47.412;8.790;2023-02-16T00:43:26;95584.56;;;1.03;100.00
68889;BME280;55930;47.412;8.790;2023-02-16T00:46:47;95595.69;;;0.82;100.00
68889;BME280;55930;47.412;8.790;2023-02-16T00:50:29;95594.97;;;0.85;100.00
68889;BME280;55930;47.412;8.790;2023-02-16T00:53:49;95598.69;;;0.91;98.87
68889;BME280;55930;47.412;8.790;2023-02-16T00:57:15;95604.69;;;0.99;98.17
68889;BME280;55930;47.412;8.790;2023-02-16T01:00:41;95609.53;;;0.93;97.83
68889;BME280;55930;47.412;8.790;2023-02-16T01:04:05;95612.91;;;1.01;97.98
68889;BME280;55930;47.412;8.790;2023-02-16T01:07:26;95624.09;;;0.94;99.40
68889;BME280;55930;47.412;8.790;2023-02-16T01:11:07;95625.28;;;1.64;93.34
68889;BME280;55930;47.412;8.790;2023-02-16T01:14:30;95625.28;;;1.39;94.56
68889;BME280;55930;47.412;8.790;2023-02-16T01:17:52;95624.91;;;1.73;91.23
68889;BME280;55930;47.412;8.790;2023-02-16T01:21:12;95626.38;;;1.24;95.43
68889;BME280;55930;47.412;8.790;2023-02-16T01:24:33;95630.13;;;1.27;96.05
68889;BME280;55930;47.412;8.790;2023-02-16T01:27:53;95627.13;;;1.10;96.92
68889;BME280;55930;47.412;8.790;2023-02-16T01:31:14;95635.69;;;1.07;96.83
68889;BME280;55930;47.412;8.790;2023-02-16T01:34:35;95633.44;;;1.09;96.31
68889;BME280;55930;47.412;8.790;2023-02-16T01:37:56;95621.50;;;1.15;96.41
68889;BME280;55930;47.412;8.790;2023-02-16T01:45:08;95625.56;;;0.85;99.79
68889;BME280;55930;47.412;8.790;2023-02-16T01:48:30;95624.06;;;0.84;100.00
68889;BME280;55930;47.412;8.790;2023-02-16T01:55:40;95617.06;;;1.27;95.06
68889;BME280;55930;47.412;8.790;2023-02-16T02:02:49;95611.06;;;1.23;94.77
68889;BME280;55930;47.412;8.790;2023-02-16T02:06:14;95605.44;;;1.06;95.15
68889;BME280;55930;47.412;8.790;2023-02-16T02:09:51;95605.09;;;1.11;95.68
68889;BME280;55930;47.412;8.790;2023-02-16T02:13:19;95600.59;;;1.01;97.08
68889;BME280;55930;47.412;8.790;2023-02-16T02:16:57;95600.59;;;1.01;96.13
68889;BME280;55930;47.412;8.790;2023-02-16T02:36:07;95599.16;;;1.43;94.67
68889;BME280;55930;47.412;8.790;2023-02-16T02:39:40;95601.38;;;1.44;93.68
68889;BME280;55930;47.412;8.790;2023-02-16T02:43:22;95602.88;;;1.42;94.46
68889;BME280;55930;47.412;8.790;2023-02-16T02:46:44;95592.03;;;1.36;95.39
68889;BME280;55930;47.412;8.790;2023-02-16T02:50:41;95600.59;;;1.12;99.88
68889;BME280;55930;47.412;8.790;2023-02-16T02:54:35;95596.50;;;1.07;98.48
68889;BME280;55930;47.412;8.790;2023-02-16T02:58:16;95593.53;;;1.16;99.08
68889;BME280;55930;47.412;8.790;2023-02-16T03:01:58;95590.16;;;1.08;99.56
68889;BME280;55930;47.412;8.790;2023-02-16T03:05:21;95589.41;;;1.15;98.15
68889;BME280;55930;47.412;8.790;2023-02-16T03:08:45;95580.44;;;1.12;96.93
68889;BME280;55930;47.412;8.790;2023-02-16T03:12:08;95579.31;;;1.06;97.50
68889;BME280;55930;47.412;8.790;2023-02-16T03:15:48;95586.06;;;1.14;97.52
68889;BME280;55930;47.412;8.790;2023-02-16T03:19:16;95587.94;;;1.53;94.80
68889;BME280;55930;47.412;8.790;2023-02-16T03:22:57;95586.81;;;1.22;97.21
68889;BME280;55930;47.412;8.790;2023-02-16T03:26:39;95585.31;;;1.25;97.00
68889;BME280;55930;47.412;8.790;2023-02-16T03:30:18;95590.88;;;0.98;98.74
68889;BME280;55930;47.412;8.790;2023-02-16T03:33:40;95591.63;;;1.06;98.26
68889;BME280;55930;47.412;8.790;2023-02-16T03:37:01;95600.56;;;0.98;98.92
68889;BME280;55930;47.412;8.790;2023-02-16T03:40:25;95592.41;;;1.31;95.59
68889;BME280;55930;47.412;8.790;2023-02-16T03:43:47;95585.31;;;1.32;95.06
68889;BME280;55930;47.412;8.790;2023-02-16T03:47:10;95584.19;;;1.29;95.77
68889;BME280;55930;47.412;8.790;2023-02-16T03:50:30;95586.81;;;1.29;96.19
68889;BME280;55930;47.412;8.790;2023-02-16T03:53:51;95587.94;;;1.25;96.17
68889;BME280;55930;47.412;8.790;2023-02-16T03:57:11;95590.53;;;1.32;97.63
68889;BME280;55930;47.412;8.790;2023-02-16T04:00:33;95592.78;;;1.19;98.05
68889;BME280;55930;47.412;8.790;2023-02-16T04:03:54;95592.75;;;1.08;98.04
68889;BME280;55930;47.412;8.790;2023-02-16T04:07:14;95595.41;;;1.19;97.59
68889;BME280;55930;47.412;8.790;2023-02-16T04:10:35;95584.94;;;1.19;96.78
68889;BME280;55930;47.412;8.790;2023-02-16T04:13:58;95592.41;;;1.21;95.83
68889;BME280;55930;47.412;8.790;2023-02-16T04:17:19;95589.41;;;1.11;97.92
68889;BME280;55930;47.412;8.790;2023-02-16T04:20:39;95591.28;;;1.07;99.07
68889;BME280;55930;47.412;8.790;2023-02-16T04:24:00;95595.75;;;1.10;99.18
68889;BME280;55930;47.412;8.790;2023-02-16T04:27:21;95588.66;;;1.07;99.29
68889;BME280;55930;47.412;8.790;2023-02-16T04:30:42;95594.25;;;1.09;99.70
68889;BME280;55930;47.412;8.790;2023-02-16T04:34:02;95598.00;;;1.23;97.04
68889;BME280;55930;47.412;8.790;2023-02-16T04:37:22;95595.38;;;1.12;97.41
68889;BME280;55930;47.412;8.790;2023-02-16T04:40:43;95603.19;;;1.05;97.10
68889;BME280;55930;47.412;8.790;2023-02-16T04:44:03;95603.19;;;1.05;97.42
68889;BME280;55930;47.412;8.790;2023-02-16T04:47:24;95603.97;;;1.09;97.81
68889;BME280;55930;47.412;8.790;2023-02-16T04:50:48;95606.19;;;1.07;99.56
68889;BME280;55930;47.412;8.790;2023-02-16T04:54:11;95609.56;;;1.07;98.28
68889;BME280;55930;47.412;8.790;2023-02-16T04:57:32;95607.66;;;0.94;98.56
68889;BME280;55930;47.412;8.790;2023-02-16T05:00:52;95609.16;;;1.05;98.29
68889;BME280;55930;47.412;8.790;2023-02-16T05:04:12;95619.59;;;0.98;98.76
68889;BME280;55930;47.412;8.790;2023-02-16T05:07:33;95612.91;;;0.94;99.87
68889;BME280;55930;47.412;8.790;2023-02-16T05:10:53;95616.63;;;0.96;99.06
68889;BME280;55930;47.412;8.790;2023-02-16T05:14:33;95618.81;;;0.80;99.71
68889;BME280;55930;47.412;8.790;2023-02-16T05:18:06;95622.56;;;0.79;99.55
68889;BME280;55930;47.412;8.790;2023-02-16T05:21:27;95615.09;;;0.81;98.84
68889;BME280;55930;47.412;8.790;2023-02-16T05:24:50;95616.19;;;0.73;100.00
68889;BME280;55930;47.412;8.790;2023-02-16T05:28:11;95615.44;;;0.72;98.77
68889;BME280;55930;47.412;8.790;2023-02-16T05:31:31;95617.28;;;0.68;100.00
68889;BME280;55930;47.412;8.790;2023-02-16T05:34:51;95619.16;;;0.75;99.59
68889;BME280;55930;47.412;8.790;2023-02-16T05:38:14;95621.81;;;0.82;99.46
68889;BME280;55930;47.412;8.790;2023-02-16T05:41:35;95624.41;;;0.75;99.65
68889;BME280;55930;47.412;8.790;2023-02-16T05:44:55;95626.59;;;0.66;99.60
68889;BME280;55930;47.412;8.790;2023-02-16T05:48:16;95632.81;;;0.36;100.00
68889;BME280;55930;47.412;8.790;2023-02-16T05:51:36;95637.25;;;0.32;100.00
68889;BME280;55930;47.412;8.790;2023-02-16T05:54:57;95634.63;;;0.22;100.00
68889;BME280;55930;47.412;8.790;2023-02-16T05:58:17;95630.94;;;0.33;100.00
68889;BME280;55930;47.412;8.790;2023-02-16T06:01:38;95629.84;;;0.38;100.00
68889;BME280;55930;47.412;8.790;2023-02-16T06:05:00;95640.28;;;0.38;100.00
68889;BME280;55930;47.412;8.790;2023-02-16T06:08:20;95641.03;;;0.38;100.00
68889;BME280;55930;47.412;8.790;2023-02-16T06:11:41;95644.75;;;0.37;100.00
68889;BME280;55930;47.412;8.790;2023-02-16T06:15:02;95643.97;;;0.30;100.00
68889;BME280;55930;47.412;8.790;2023-02-16T06:18:24;95639.91;;;0.36;100.00
68889;BME280;55930;47.412;8.790;2023-02-16T06:21:44;95642.47;;;0.32;100.00
68889;BME280;55930;47.412;8.790;2023-02-16T06:25:05;95645.47;;;0.34;100.00
68889;BME280;55930;47.412;8.790;2023-02-16T06:28:26;95651.81;;;0.33;100.00
68889;BME280;55930;47.412;8.790;2023-02-16T06:31:48;95657.06;;;0.37;100.00
68889;BME280;55930;47.412;8.790;2023-02-16T06:35:09;95664.97;;;0.55;100.00
68889;BME280;55930;47.412;8.790;2023-02-16T06:38:32;95668.72;;;0.61;100.00
68889;BME280;55930;47.412;8.790;2023-02-16T06:41:52;95678.41;;;0.57;100.00
68889;BME280;55930;47.412;8.790;2023-02-16T06:45:12;95674.34;;;0.63;100.00
68889;BME280;55930;47.412;8.790;2023-02-16T06:48:33;95673.72;;;0.94;100.00
68889;BME280;55930;47.412;8.790;2023-02-16T06:51:53;95678.19;;;0.97;100.00
68889;BME280;55930;47.412;8.790;2023-02-16T06:55:14;95678.59;;;1.06;100.00
68889;BME280;55930;47.412;8.790;2023-02-16T06:58:34;95678.28;;;1.26;99.79
68889;BME280;55930;47.412;8.790;2023-02-16T07:01:54;95669.34;;;1.55;98.67
68889;BME280;55930;47.412;8.790;2023-02-16T07:05:15;95671.63;;;1.67;97.83
68889;BME280;55930;47.412;8.790;2023-02-16T07:08:36;95673.50;;;1.88;96.99
68889;BME280;55930;47.412;8.790;2023-02-16T07:11:56;95671.94;;;2.33;94.37
68889;BME280;55930;47.412;8.790;2023-02-16T07:15:20;95678.25;;;3.40;89.70
68889;BME280;55930;47.412;8.790;2023-02-16T07:18:41;95683.13;;;5.06;78.37
68889;BME280;55930;47.412;8.790;2023-02-16T07:22:01;95688.44;;;5.33;76.95
68889;BME280;55930;47.412;8.790;2023-02-16T07:25:22;95689.31;;;5.23;76.41
68889;BME280;55930;47.412;8.790;2023-02-16T07:28:44;95689.69;;;4.94;78.79
68889;BME280;55930;47.412;8.790;2023-02-16T07:32:26;95690.47;;;5.75;74.96
68889;BME280;55930;47.412;8.790;2023-02-16T07:35:47;95689.22;;;10.21;57.88
68889;BME280;55930;47.412;8.790;2023-02-16T07:39:09;95687.75;;;11.20;52.75
68889;BME280;55930;47.412;8.790;2023-02-16T07:42:30;95681.91;;;8.54;56.85
68889;BME280;55930;47.412;8.790;2023-02-16T07:45:51;95682.84;;;7.82;61.12
68889;BME280;55930;47.412;8.790;2023-02-16T07:49:11;95689.25;;;7.49;64.87
68889;BME280;55930;47.412;8.790;2023-02-16T07:52:32;95694.06;;;8.51;59.86
68889;BME280;55930;47.412;8.790;2023-02-16T07:55:53;95696.41;;;14.16;44.42
68889;BME280;55930;47.412;8.790;2023-02-16T07:59:14;95693.69;;;14.25;41.93
68889;BME280;55930;47.412;8.790;2023-02-16T08:02:35;95689.31;;;11.70;48.02
68889;BME280;55930;47.412;8.790;2023-02-16T08:05:59;95695.69;;;12.31;47.02
68889;BME280;55930;47.412;8.790;2023-02-16T08:09:19;95701.19;;;12.55;46.14
68889;BME280;55930;47.412;8.790;2023-02-16T08:12:40;95699.41;;;13.07;45.02
68889;BME280;55930;47.412;8.790;2023-02-16T08:16:00;95698.25;;;12.80;46.45
68889;BME280;55930;47.412;8.790;2023-02-16T08:19:21;95702.97;;;12.49;45.33
68889;BME280;55930;47.412;8.790;2023-02-16T08:22:41;95697.97;;;12.60;43.65
68889;BME280;55930;47.412;8.790;2023-02-16T08:26:09;95698.75;;;13.90;43.33
68889;BME280;55930;47.412;8.790;2023-02-16T08:29:31;95697.63;;;14.77;39.71
68889;BME280;55930;47.412;8.790;2023-02-16T08:32:52;95688.19;;;12.57;43.10
68889;BME280;55930;47.412;8.790;2023-02-16T08:36:23;95688.72;;;14.95;39.73
68889;BME280;55930;47.412;8.790;2023-02-16T08:39:44;95692.84;;;14.81;39.40
68889;BME280;55930;47.412;8.790;2023-02-16T08:43:08;95687.16;;;15.03;39.17
68889;BME280;55930;47.412;8.790;2023-02-16T08:46:29;95689.59;;;16.30;38.17
68889;BME280;55930;47.412;8.790;2023-02-16T08:49:49;95698.31;;;19.07;33.33
68889;BME280;55930;47.412;8.790;2023-02-16T08:53:14;95697.38;;;20.11;29.97
68889;BME280;55930;47.412;8.790;2023-02-16T08:56:35;95697.34;;;19.27;30.80
68889;BME280;55930;47.412;8.790;2023-02-16T08:59:55;95692.78;;;20.69;29.66
68889;BME280;55930;47.412;8.790;2023-02-16T09:03:48;95701.78;;;19.92;28.75
68889;BME280;55930;47.412;8.790;2023-02-16T09:07:11;95696.22;;;21.22;28.10
68889;BME280;55930;47.412;8.790;2023-02-16T09:10:32;95704.09;;;21.50;27.34
68889;BME280;55930;47.412;8.790;2023-02-16T09:13:56;95698.22;;;17.83;33.70
68889;BME280;55930;47.412;8.790;2023-02-16T09:17:16;95700.34;;;15.51;36.52
68889;BME280;55930;47.412;8.790;2023-02-16T09:20:39;95703.00;;;16.91;35.30
68889;BME280;55930;47.412;8.790;2023-02-16T09:24:02;95701.50;;;21.68;28.01
68889;BME280;55930;47.412;8.790;2023-02-16T09:27:23;95703.34;;;22.82;25.92
68889;BME280;55930;47.412;8.790;2023-02-16T09:30:43;95706.47;;;23.74;24.69
68889;BME280;55930;47.412;8.790;2023-02-16T09:34:22;95700.16;;;23.15;24.87
68889;BME280;55930;47.412;8.790;2023-02-16T09:37:42;95704.53;;;24.93;23.82
68889;BME280;55930;47.412;8.790;2023-02-16T09:45:10;95709.16;;;23.23;24.49
68889;BME280;55930;47.412;8.790;2023-02-16T09:52:23;95710.34;;;23.09;24.18
68889;BME280;55930;47.412;8.790;2023-02-16T10:00:08;95701.00;;;24.72;22.52
68889;BME280;55930;47.412;8.790;2023-02-16T10:07:04;95705.38;;;18.34;30.60
68889;BME280;55930;47.412;8.790;2023-02-16T10:13:58;95710.13;;;23.90;23.68
68889;BME280;55930;47.412;8.790;2023-02-16T10:20:59;95698.63;;;25.91;20.54
68889;BME280;55930;47.412;8.790;2023-02-16T10:24:25;95699.84;;;26.67;19.57
68889;BME280;55930;47.412;8.790;2023-02-16T10:27:51;95706.41;;;26.72;20.03
68889;BME280;55930;47.412;8.790;2023-02-16T10:31:21;95699.00;;;22.92;23.03
68889;BME280;55930;47.412;8.790;2023-02-16T10:41:53;95693.09;;;26.61;18.83
68889;BME280;55930;47.412;8.790;2023-02-16T10:45:23;95686.41;;;27.06;18.46
68889;BME280;55930;47.412;8.790;2023-02-16T10:48:46;95684.81;;;25.47;20.08
68889;BME280;55930;47.412;8.790;2023-02-16T10:52:07;95680.25;;;25.22;18.63
68889;BME280;55930;47.412;8.790;2023-02-16T10:55:28;95678.00;;;25.54;19.75
68889;BME280;55930;47.412;8.790;2023-02-16T10:58:51;95672.94;;;27.00;17.24
68889;BME280;55930;47.412;8.790;2023-02-16T11:05:37;95676.00;;;25.96;18.65
68889;BME280;55930;47.412;8.790;2023-02-16T11:08:59;95680.09;;;25.48;19.75
68889;BME280;55930;47.412;8.790;2023-02-16T11:12:31;95681.53;;;20.59;27.03
68889;BME280;55930;47.412;8.790;2023-02-16T11:15:57;95681.13;;;18.29;29.23
68889;BME280;55930;47.412;8.790;2023-02-16T11:19:21;95670.75;;;18.00;31.47
68889;BME280;55930;47.412;8.790;2023-02-16T11:22:43;95675.50;;;18.75;32.34
68889;BME280;55930;47.412;8.790;2023-02-16T11:29:32;95641.22;;;25.32;20.05
68889;BME280;55930;47.412;8.790;2023-02-16T11:32:52;95642.03;;;23.67;19.94
68889;BME280;55930;47.412;8.790;2023-02-16T11:36:23;95639.50;;;25.63;18.45
68889;BME280;55930;47.412;8.790;2023-02-16T11:39:55;95626.16;;;26.65;18.21
68889;BME280;55930;47.412;8.790;2023-02-16T11:43:17;95613.22;;;27.10;17.32
68889;BME280;55930;47.412;8.790;2023-02-16T11:46:41;95616.03;;;26.02;18.50
68889;BME280;55930;47.412;8.790;2023-02-16T11:50:20;95613.19;;;26.15;19.54
68889;BME280;55930;47.412;8.790;2023-02-16T11:53:45;95600.59;;;25.68;19.07
68889;BME280;55930;47.412;8.790;2023-02-16T11:57:32;95578.13;;;29.84;17.34
68889;BME280;55930;47.412;8.790;2023-02-16T12:01:19;95576.34;;;27.62;18.04
68889;BME280;55930;47.412;8.790;2023-02-16T12:11:48;95542.03;;;28.14;17.22
68889;BME280;55930;47.412;8.790;2023-02-16T12:22:47;95512.03;;;26.90;18.79
68889;BME280;55930;47.412;8.790;2023-02-16T12:26:34;95603.19;;;23.78;21.37
68889;BME280;55930;47.412;8.790;2023-02-16T12:33:42;95518.84;;;25.17;20.30
68889;BME280;55930;47.412;8.790;2023-02-16T12:44:58;95525.41;;;28.67;17.41
68889;BME280;55930;47.412;8.790;2023-02-16T12:55:54;95531.09;;;27.66;16.68
68889;BME280;55930;47.412;8.790;2023-02-16T12:59:21;95541.50;;;29.20;15.40
68889;BME280;55930;47.412;8.790;2023-02-16T13:02:48;95541.41;;;26.84;16.92
68889;BME280;55930;47.412;8.790;2023-02-16T13:13:25;95546.47;;;29.31;14.90
68889;BME280;55930;47.412;8.790;2023-02-16T13:20:20;95537.09;;;29.67;15.40
68889;BME280;55930;47.412;8.790;2023-02-16T13:35:20;95546.88;;;23.57;21.53
68889;BME280;55930;47.412;8.790;2023-02-16T13:46:31;95523.28;;;25.07;19.38
68889;BME280;55930;47.412;8.790;2023-02-16T13:50:03;95518.56;;;25.77;18.60
68889;BME280;55930;47.412;8.790;2023-02-16T13:53:30;95516.53;;;26.80;17.49
68889;BME280;55930;47.412;8.790;2023-02-16T13:56:52;95506.56;;;25.44;18.02
68889;BME280;55930;47.412;8.790;2023-02-16T14:00:33;95504.03;;;27.30;17.12
68889;BME280;55930;47.412;8.790;2023-02-16T14:03:54;95499.34;;;23.43;19.82
68889;BME280;55930;47.412;8.790;2023-02-16T14:17:54;95504.84;;;20.58;25.20
68889;BME280;55930;47.412;8.790;2023-02-16T14:21:38;95508.91;;;19.77;25.90
68889;BME280;55930;47.412;8.790;2023-02-16T14:24:59;95503.66;;;20.02;26.26
68889;BME280;55930;47.412;8.790;2023-02-16T14:32:25;95509.03;;;19.10;26.46
68889;BME280;55930;47.412;8.790;2023-02-16T14:39:20;95505.16;;;16.95;28.77
68889;BME280;55930;47.412;8.790;2023-02-16T14:42:54;95505.34;;;16.60;29.54
68889;BME280;55930;47.412;8.790;2023-02-16T14:50:25;95505.72;;;16.21;30.60
68889;BME280;55930;47.412;8.790;2023-02-16T15:01:41;95513.13;;;15.86;31.85
68889;BME280;55930;47.412;8.790;2023-02-16T15:05:33;95516.41;;;15.95;32.14
68889;BME280;55930;47.412;8.790;2023-02-16T15:08:57;95516.09;;;14.68;33.80
68889;BME280;55930;47.412;8.790;2023-02-16T15:12:28;95522.81;;;14.78;33.70
68889;BME280;55930;47.412;8.790;2023-02-16T15:15:56;95527.34;;;14.43;35.40
68889;BME280;55930;47.412;8.790;2023-02-16T15:19:25;95517.28;;;13.99;37.71
68889;BME280;55930;47.412;8.790;2023-02-16T15:22:51;95513.66;;;14.26;36.03
68889;BME280;55930;47.412;8.790;2023-02-16T15:26:32;95513.00;;;13.78;37.17
68889;BME280;55930;47.412;8.790;2023-02-16T15:30:08;95515.50;;;13.58;39.20
68889;BME280;55930;47.412;8.790;2023-02-16T15:33:41;95519.66;;;13.59;40.46
68889;BME280;55930;47.412;8.790;2023-02-16T15:37:38;95515.88;;;13.18;40.27
68889;BME280;55930;47.412;8.790;2023-02-16T15:41:02;95510.47;;;12.52;43.07
68889;BME280;55930;47.412;8.790;2023-02-16T15:44:32;95517.38;;;12.68;43.35
68889;BME280;55930;47.412;8.790;2023-02-16T15:48:18;95512.97;;;12.46;46.68
68889;BME280;55930;47.412;8.790;2023-02-16T15:51:40;95527.81;;;12.20;46.58
68889;BME280;55930;47.412;8.790;2023-02-16T15:55:04;95523.06;;;11.78;49.71
68889;BME280;55930;47.412;8.790;2023-02-16T15:58:26;95526.56;;;11.57;50.48
68889;BME280;55930;47.412;8.790;2023-02-16T16:01:51;95527.25;;;11.30;51.13
68889;BME280;55930;47.412;8.790;2023-02-16T16:05:26;95528.59;;;10.95;55.41
68889;BME280;55930;47.412;8.790;2023-02-16T16:08:47;95521.09;;;10.71;56.34
68889;BME280;55930;47.412;8.790;2023-02-16T16:12:11;95520.16;;;10.56;56.61
68889;BME280;55930;47.412;8.790;2023-02-16T16:15:39;95531.38;;;10.39;58.77
68889;BME280;55930;47.412;8.790;2023-02-16T16:19:14;95525.75;;;10.15;60.07
68889;BME280;55930;47.412;8.790;2023-02-16T16:22:37;95525.50;;;10.00;61.31
68889;BME280;55930;47.412;8.790;2023-02-16T16:25:58;95526.56;;;10.03;61.45
68889;BME280;55930;47.412;8.790;2023-02-16T16:33:07;95543.66;;;9.54;65.86
68889;BME280;55930;47.412;8.790;2023-02-16T16:36:32;95541.47;;;9.40;66.31
68889;BME280;55930;47.412;8.790;2023-02-16T16:43:27;95553.44;;;9.19;65.71
68889;BME280;55930;47.412;8.790;2023-02-16T16:46:48;95545.81;;;8.83;67.84
68889;BME280;55930;47.412;8.790;2023-02-16T16:56:49;95543.91;;;8.84;65.26
68889;BME280;55930;47.412;8.790;2023-02-16T17:00:13;95552.16;;;8.73;67.93
68889;BME280;55930;47.412;8.790;2023-02-16T17:03:33;95545.56;;;8.53;68.62
68889;BME280;55930;47.412;8.790;2023-02-16T17:06:54;95559.81;;;8.42;70.15
68889;BME280;55930;47.412;8.790;2023-02-16T17:10:16;95552.84;;;8.49;68.45
68889;BME280;55930;47.412;8.790;2023-02-16T17:13:37;95558.00;;;8.39;67.02
68889;BME280;55930;47.412;8.790;2023-02-16T17:16:57;95563.75;;;8.22;69.66
68889;BME280;55930;47.412;8.790;2023-02-16T17:20:19;95559.66;;;8.04;71.21
68889;BME280;55930;47.412;8.790;2023-02-16T17:23:39;95565.28;;;7.90;71.03
68889;BME280;55930;47.412;8.790;2023-02-16T17:27:00;95554.31;;;7.92;70.93
68889;BME280;55930;47.412;8.790;2023-02-16T17:30:20;95552.75;;;7.78;71.97
68889;BME280;55930;47.412;8.790;2023-02-16T17:33:40;95555.38;;;7.49;73.98
68889;BME280;55930;47.412;8.790;2023-02-16T17:37:03;95553.38;;;7.53;75.10
68889;BME280;55930;47.412;8.790;2023-02-16T17:40:26;95551.97;;;7.49;74.34
68889;BME280;55930;47.412;8.790;2023-02-16T17:43:47;95549.50;;;7.58;75.43
68889;BME280;55930;47.412;8.790;2023-02-16T17:47:13;95539.19;;;7.31;75.76
68889;BME280;55930;47.412;8.790;2023-02-16T17:50:34;95542.91;;;7.17;76.73
68889;BME280;55930;47.412;8.790;2023-02-16T17:53:55;95537.28;;;7.15;78.19
68889;BME280;55930;47.412;8.790;2023-02-16T17:57:16;95541.25;;;7.07;78.52
68889;BME280;55930;47.412;8.790;2023-02-16T18:00:37;95541.66;;;7.22;74.89
68889;BME280;55930;47.412;8.790;2023-02-16T18:03:57;95551.88;;;7.52;73.07
68889;BME280;55930;47.412;8.790;2023-02-16T18:07:18;95551.53;;;7.50;73.33
68889;BME280;55930;47.412;8.790;2023-02-16T18:10:42;95560.47;;;7.40;72.94
68889;BME280;55930;47.412;8.790;2023-02-16T18:14:03;95563.00;;;7.27;73.22
68889;BME280;55930;47.412;8.790;2023-02-16T18:17:24;95565.16;;;7.16;74.80
68889;BME280;55930;47.412;8.790;2023-02-16T18:20:44;95565.41;;;7.22;74.13
68889;BME280;55930;47.412;8.790;2023-02-16T18:24:05;95564.59;;;7.25;74.12
68889;BME280;55930;47.412;8.790;2023-02-16T18:27:26;95568.97;;;7.32;72.89
68889;BME280;55930;47.412;8.790;2023-02-16T18:30:47;95570.09;;;7.14;73.60
68889;BME280;55930;47.412;8.790;2023-02-16T18:34:08;95577.69;;;7.12;76.66
68889;BME280;55930;47.412;8.790;2023-02-16T18:37:31;95575.19;;;7.05;74.40
68889;BME280;55930;47.412;8.790;2023-02-16T18:40:53;95577.03;;;7.08;75.81
68889;BME280;55930;47.412;8.790;2023-02-16T18:44:14;95581.38;;;6.99;76.74
68889;BME280;55930;47.412;8.790;2023-02-16T18:47:34;95578.97;;;7.04;76.97
68889;BME280;55930;47.412;8.790;2023-02-16T18:50:55;95581.13;;;6.93;79.71
68889;BME280;55930;47.412;8.790;2023-02-16T18:54:16;95588.25;;;6.76;78.66
68889;BME280;55930;47.412;8.790;2023-02-16T18:57:36;95581.78;;;6.97;76.79
68889;BME280;55930;47.412;8.790;2023-02-16T19:00:57;95574.19;;;6.99;76.28
68889;BME280;55930;47.412;8.790;2023-02-16T19:04:17;95575.59;;;7.04;76.03
68889;BME280;55930;47.412;8.790;2023-02-16T19:07:37;95578.19;;;6.87;76.43
68889;BME280;55930;47.412;8.790;2023-02-16T19:10:58;95573.03;;;6.84;76.85
68889;BME280;55930;47.412;8.790;2023-02-16T19:14:21;95575.19;;;7.05;73.47
68889;BME280;55930;47.412;8.790;2023-02-16T19:17:41;95577.00;;;6.92;74.13
68889;BME280;55930;47.412;8.790;2023-02-16T19:21:04;95571.44;;;7.22;67.62
68889;BME280;55930;47.412;8.790;2023-02-16T19:24:25;95577.06;;;7.57;63.08
68889;BME280;55930;47.412;8.790;2023-02-16T19:27:48;95581.84;;;7.62;64.29
68889;BME280;55930;47.412;8.790;2023-02-16T19:31:20;95583.66;;;7.65;63.43
68889;BME280;55930;47.412;8.790;2023-02-16T19:34:40;95593.31;;;7.72;63.41
68889;BME280;55930;47.412;8.790;2023-02-16T19:38:01;95588.44;;;7.70;63.49
68889;BME280;55930;47.412;8.790;2023-02-16T19:41:24;95590.72;;;7.68;63.65
68889;BME280;55930;47.412;8.790;2023-02-16T19:44:45;95597.59;;;7.65;64.49
68889;BME280;55930;47.412;8.790;2023-02-16T19:48:06;95593.63;;;7.74;61.87
68889;BME280;55930;47.412;8.790;2023-02-16T19:51:28;95594.69;;;7.76;62.27
68889;BME280;55930;47.412;8.790;2023-02-16T19:54:51;95596.59;;;7.76;63.23
68889;BME280;55930;47.412;8.790;2023-02-16T19:58:12;95592.06;;;7.76;63.57
68889;BME280;55930;47.412;8.790;2023-02-16T20:01:33;95602.78;;;7.69;62.27
68889;BME280;55930;47.412;8.790;2023-02-16T20:04:55;95606.75;;;7.77;62.49
68889;BME280;55930;47.412;8.790;2023-02-16T20:08:16;95610.06;;;7.81;62.68
68889;BME280;55930;47.412;8.790;2023-02-16T20:11:37;95608.31;;;7.75;61.73
68889;BME280;55930;47.412;8.790;2023-02-16T20:14:57;95605.81;;;7.84;60.47
68889;BME280;55930;47.412;8.790;2023-02-16T20:18:18;95603.69;;;7.79;59.98
68889;BME280;55930;47.412;8.790;2023-02-16T20:21:38;95611.53;;;7.82;61.89
68889;BME280;55930;47.412;8.790;2023-02-16T20:25:05;95612.13;;;7.74;63.81
68889;BME280;55930;47.412;8.790;2023-02-16T20:28:26;95616.00;;;7.53;66.40
68889;BME280;55930;47.412;8.790;2023-02-16T20:31:52;95609.22;;;7.52;64.26
68889;BME280;55930;47.412;8.790;2023-02-16T20:35:14;95617.41;;;7.41;65.10
68889;BME280;55930;47.412;8.790;2023-02-16T20:38:34;95616.72;;;7.37;66.80
68889;BME280;55930;47.412;8.790;2023-02-16T20:41:55;95607.44;;;7.13;66.91
68889;BME280;55930;47.412;8.790;2023-02-16T20:45:17;95617.03;;;7.23;64.80
68889;BME280;55930;47.412;8.790;2023-02-16T20:48:42;95620.94;;;6.99;69.25
68889;BME280;55930;47.412;8.790;2023-02-16T20:52:03;95622.44;;;7.00;67.91
68889;BME280;55930;47.412;8.790;2023-02-16T20:55:26;95619.88;;;7.12;65.28
68889;BME280;55930;47.412;8.790;2023-02-16T20:58:47;95614.91;;;6.98;67.12
68889;BME280;55930;47.412;8.790;2023-02-16T21:02:09;95606.25;;;6.98;65.27